Time;durP1;ratioP1;P1;durP2;ratioP2;P2;SDS_P1;SDS_P2;PMS_P1;PMS_P2;Temp;Humidity;BMP_temperature;BMP_pressure;BME280_temperature;BME280_humidity;BME280_pressure;Samples;Min_cycle;Max_cycle;Signal;HPM_P1;HPM_P2
2022/01/28 00:01:37;;;;;;;222.93;106.25;;;;;;;8.71;100.00;98925.41;4762539;30;20132;-66
2022/01/28 00:04:27;;;;;;;223.35;107.53;;;;;;;8.71;100.00;98932.25;4778078;29;20157;-66
2022/01/28 00:07:09;;;;;;;225.02;108.65;;;;;;;8.73;100.00;98933.94;4798772;29;20495;-66
2022/01/28 00:09:57;;;;;;;214.40;108.30;;;;;;;8.71;100.00;98924.56;4799143;29;20491;-66
2022/01/28 00:12:54;;;;;;;219.25;108.65;;;;;;;8.87;100.00;98937.94;4799020;29;20047;-66
2022/01/28 00:39:29;;;;;;;205.05;102.25;;;;;;;9.25;100.00;98952.63;4762372;30;20467;-66
2022/01/28 00:42:11;;;;;;;211.23;105.22;;;;;;;9.20;100.00;98943.28;4787204;29;20055;-66
2022/01/28 00:45:01;;;;;;;202.02;103.55;;;;;;;9.19;100.00;98945.88;4799120;29;20088;-66
2022/01/28 00:47:49;;;;;;;207.20;104.05;;;;;;;9.20;100.00;98943.28;4798824;29;20115;-66
2022/01/28 00:50:31;;;;;;;218.23;104.90;;;;;;;9.18;100.00;98946.75;4786021;29;20145;-66
2022/01/28 00:53:19;;;;;;;200.05;101.72;;;;;;;9.08;100.00;98952.97;4780530;30;20898;-66
2022/01/28 00:56:01;;;;;;;226.00;104.22;;;;;;;9.02;100.00;98956.47;4780564;29;20489;-66
2022/01/28 00:58:56;;;;;;;202.65;102.60;;;;;;;8.97;100.00;98960.88;4779294;29;20485;-66
2022/01/28 01:01:31;;;;;;;227.10;115.40;;;;;;;8.96;100.00;98968.59;4763878;30;20134;-66
2022/01/28 01:04:20;;;;;;;205.80;108.43;;;;;;;8.95;100.00;98962.63;4780080;29;20055;-66
2022/01/28 01:07:03;;;;;;;205.05;103.82;;;;;;;8.92;100.00;98967.00;4780826;30;20066;-66
2022/01/28 01:09:50;;;;;;;200.05;100.03;;;;;;;8.81;100.00;98975.72;4780561;30;20687;-66
2022/01/28 01:12:35;;;;;;;187.40;97.50;;;;;;;8.77;100.00;98978.41;4779472;30;20078;-66
2022/01/28 01:15:33;;;;;;;206.73;96.75;;;;;;;8.74;100.00;98975.88;4779398;29;20444;-66
2022/01/28 01:18:27;;;;;;;186.73;94.47;;;;;;;8.91;100.00;98984.13;4772365;29;20059;-66
2022/01/28 01:21:25;;;;;;;176.45;92.75;;;;;;;8.87;100.00;98981.63;4762742;30;20139;-66
2022/01/28 01:24:08;;;;;;;166.63;83.20;;;;;;;8.83;100.00;98989.41;4772554;29;20051;-66
2022/01/28 01:26:59;;;;;;;159.15;79.15;;;;;;;9.00;100.00;98993.38;4767488;29;20068;-66
2022/01/28 01:29:44;;;;;;;151.18;76.45;;;;;;;8.90;100.00;98997.00;4779945;30;20055;-66
2022/01/28 01:32:33;;;;;;;136.10;74.05;;;;;;;8.90;100.00;98999.56;4756074;30;20154;-66
2022/01/28 01:35:15;;;;;;;138.50;72.00;;;;;;;8.81;100.00;98988.56;4771724;30;20565;-66
2022/01/28 01:38:06;;;;;;;133.98;66.82;;;;;;;8.83;100.00;98991.97;4778298;29;20062;-65
2022/01/28 01:40:52;;;;;;;145.63;71.55;;;;;;;8.76;100.00;98992.09;4764653;30;20129;-66
2022/01/28 01:43:53;;;;;;;138.00;70.38;;;;;;;8.70;100.00;99000.75;4777033;29;20051;-66
2022/01/28 01:46:57;;;;;;;124.82;64.75;;;;;;;8.77;100.00;98998.94;4771929;29;20051;-67
2022/01/28 01:52:45;;;;;;;119.15;63.10;;;;;;;8.71;100.00;98999.88;4780194;29;20051;-66
2022/01/28 01:55:33;;;;;;;116.45;61.05;;;;;;;8.64;100.00;99006.00;4772700;30;20147;-66
2022/01/28 01:58:30;;;;;;;112.88;59.05;;;;;;;8.71;100.00;99005.00;4771807;29;20775;-66
2022/01/28 02:01:18;;;;;;;116.47;58.92;;;;;;;8.65;100.00;99010.25;4767511;29;20043;-68
2022/01/28 02:04:08;;;;;;;113.55;60.45;;;;;;;8.69;100.00;99009.34;4772000;30;20059;-68
2022/01/28 02:06:51;;;;;;;109.53;60.22;;;;;;;8.74;100.00;99012.69;4781616;29;20067;-66
2022/01/28 02:09:47;;;;;;;117.38;60.42;;;;;;;8.82;100.00;99009.97;4789092;29;20067;-66
2022/01/28 02:12:22;;;;;;;116.35;60.53;;;;;;;9.01;100.00;99018.22;4780783;29;20086;-67
2022/01/28 02:15:17;;;;;;;112.95;60.60;;;;;;;9.03;100.00;99024.13;4776165;29;20469;-67
2022/01/28 02:17:52;;;;;;;106.45;58.85;;;;;;;9.01;100.00;99028.47;4770977;29;20062;-67
2022/01/28 02:20:43;;;;;;;105.57;56.03;;;;;;;9.01;100.00;99023.34;4768789;29;20055;-67
2022/01/28 02:23:31;;;;;;;110.07;58.10;;;;;;;9.17;100.00;99028.19;4775827;30;20051;-67
2022/01/28 02:26:26;;;;;;;119.70;58.05;;;;;;;9.31;100.00;99034.75;4765010;30;20087;-67
2022/01/28 02:29:08;;;;;;;116.32;58.90;;;;;;;9.32;100.00;99036.47;4769243;30;20066;-67
2022/01/28 02:31:59;;;;;;;116.63;59.40;;;;;;;9.32;100.00;99039.03;4766460;30;20067;-67
2022/01/28 02:34:41;;;;;;;109.40;59.90;;;;;;;9.48;100.00;99043.84;4767309;30;20081;-67
2022/01/28 02:37:29;;;;;;;109.60;59.80;;;;;;;9.48;100.00;99059.28;4781218;29;20551;-67
2022/01/28 02:40:13;;;;;;;120.22;63.40;;;;;;;9.52;100.00;99052.34;4782081;29;20118;-67
2022/01/28 02:43:32;;;;;;;121.35;65.55;;;;;;;9.61;100.00;99057.31;4770109;30;20059;-68
2022/01/28 02:46:14;;;;;;;119.13;66.95;;;;;;;9.69;100.00;99067.44;4780489;29;20055;-67
2022/01/28 02:49:07;;;;;;;123.22;67.72;;;;;;;9.90;100.00;99062.69;4781123;30;20766;-67
2022/01/28 02:51:49;;;;;;;121.55;65.65;;;;;;;9.90;100.00;99072.13;4781517;29;20047;-67
2022/01/28 02:54:47;;;;;;;128.80;65.65;;;;;;;9.97;100.00;99072.00;4773672;30;20084;-67
2022/01/28 02:57:29;;;;;;;124.15;59.33;;;;;;;10.02;100.00;99077.03;4781556;29;20055;-67
2022/01/28 03:00:18;;;;;;;111.07;58.45;;;;;;;10.12;100.00;99078.53;4781428;29;20086;-67
2022/01/28 03:03:01;;;;;;;110.30;57.73;;;;;;;10.27;100.00;99087.66;4781959;29;20636;-67
2022/01/28 03:05:51;;;;;;;104.90;56.58;;;;;;;10.40;100.00;99090.81;4778576;29;20597;-66
2022/01/28 03:08:34;;;;;;;106.80;57.13;;;;;;;10.52;100.00;99091.38;4779792;29;20144;-67
2022/01/28 03:19:51;;;;;;;95.50;54.40;;;;;;;11.16;100.00;99112.16;4771062;30;20102;-67
2022/01/28 03:22:41;;;;;;;106.47;55.10;;;;;;;11.28;100.00;99115.28;4775081;29;20070;-67
2022/01/28 03:25:23;;;;;;;111.80;55.22;;;;;;;12.16;100.00;99114.56;4787210;30;20078;-66
2022/01/28 03:28:16;;;;;;;118.53;54.42;;;;;;;12.77;100.00;99118.69;4782237;30;20786;-68
2022/01/28 03:30:57;;;;;;;109.05;53.95;;;;;;;13.32;97.81;99129.88;4782218;30;20069;-67
2022/01/28 03:33:46;;;;;;;112.55;53.40;;;;;;;13.65;90.80;99133.88;4778886;30;20547;-68
2022/01/28 03:36:29;;;;;;;103.35;49.85;;;;;;;13.95;85.62;99141.47;4781385;29;20071;-67
2022/01/28 03:39:18;;;;;;;99.78;49.47;;;;;;;14.37;84.12;99144.19;4786979;29;20114;-68
2022/01/28 03:42:00;;;;;;;103.72;48.70;;;;;;;14.72;83.06;99142.88;4799864;29;20051;-67
2022/01/28 03:44:49;;;;;;;85.40;47.03;;;;;;;15.31;78.30;99140.47;4798779;29;20112;-67
2022/01/28 03:47:31;;;;;;;88.05;45.00;;;;;;;16.13;75.97;99134.28;4782274;29;20132;-67
2022/01/28 03:50:20;;;;;;;87.40;41.58;;;;;;;16.18;69.98;99147.94;4775214;29;20058;-67
2022/01/28 03:53:04;;;;;;;78.18;41.42;;;;;;;16.35;71.74;99144.56;4779037;29;20134;-65
2022/01/28 03:55:53;;;;;;;76.93;41.85;;;;;;;16.50;69.21;99154.25;4780246;29;20156;-67
2022/01/28 03:58:35;;;;;;;88.78;41.20;;;;;;;16.81;67.10;99148.47;4779124;29;20077;-67
2022/01/28 04:01:31;;;;;;;77.50;43.20;;;;;;;17.14;65.21;99140.78;4777932;29;20118;-66
2022/01/28 04:13:24;;;;;;;83.38;40.47;;;;;;;17.89;62.83;99166.50;4763238;30;20067;-67
2022/01/28 04:19:07;;;;;;;67.53;38.65;;;;;;;18.49;60.63;99178.06;4777425;29;20511;-67
2022/01/28 04:21:56;;;;;;;61.00;36.85;;;;;;;17.91;61.16;99170.72;4777203;30;20119;-67
2022/01/28 04:24:38;;;;;;;65.35;38.95;;;;;;;17.90;60.72;99184.69;4778225;29;20702;-67
2022/01/28 04:27:26;;;;;;;69.40;37.72;;;;;;;18.17;58.86;99184.19;4776916;29;20140;-67
2022/01/28 04:30:08;;;;;;;71.75;40.45;;;;;;;18.40;60.54;99167.28;4778132;29;20113;-67
2022/01/28 04:32:56;;;;;;;67.47;39.35;;;;;;;17.60;60.27;99175.81;4775302;29;20075;-67
2022/01/28 04:35:38;;;;;;;75.28;41.00;;;;;;;17.65;61.84;99168.63;4776557;29;20067;-67
2022/01/28 04:38:43;;;;;;;80.88;39.88;;;;;;;18.21;63.64;99167.44;4779406;29;20055;-67
2022/01/28 04:41:49;;;;;;;71.03;39.60;;;;;;;18.19;60.39;99175.34;4777144;29;20051;-67
2022/01/28 04:50:27;;;;;;;76.32;43.88;;;;;;;18.46;61.50;99182.59;4776406;29;20058;-67
2022/01/28 05:02:05;;;;;;;76.63;42.53;;;;;;;18.95;62.23;99193.84;4776130;29;20071;-68
2022/01/28 05:05:07;;;;;;;75.82;40.40;;;;;;;18.54;59.57;99202.16;4775795;29;20138;-68
2022/01/28 05:08:10;;;;;;;79.70;40.88;;;;;;;18.89;60.17;99196.81;4768990;29;20056;-68
2022/01/28 05:25:45;;;;;;;70.22;36.60;;;;;;;18.70;59.16;99194.34;4781368;29;20057;-67
2022/01/28 05:28:21;;;;;;;65.63;36.75;;;;;;;19.07;57.64;99204.47;4781875;29;20054;-67
2022/01/28 05:31:11;;;;;;;69.22;37.30;;;;;;;18.66;59.39;99196.31;4767598;29;20040;-68
2022/01/28 05:33:53;;;;;;;67.63;37.53;;;;;;;18.90;57.31;99195.88;4778739;29;20112;-69
2022/01/28 05:36:41;;;;;;;68.63;35.60;;;;;;;19.16;57.59;99213.53;4780539;29;20054;-69
2022/01/28 05:39:23;;;;;;;58.58;34.08;;;;;;;19.16;58.42;99215.28;4788837;29;20112;-69
2022/01/28 05:42:12;;;;;;;60.20;35.10;;;;;;;19.00;58.54;99205.69;4773537;29;20066;-67
2022/01/28 05:44:55;;;;;;;69.07;35.97;;;;;;;19.03;58.61;99207.31;4794402;29;20059;-68
2022/01/28 05:47:44;;;;;;;63.53;34.22;;;;;;;18.96;57.04;99211.19;4796937;29;20059;-68
2022/01/28 05:50:27;;;;;;;71.63;33.15;;;;;;;18.93;56.86;99213.97;4785462;29;20063;-68
2022/01/28 05:53:16;;;;;;;58.67;32.47;;;;;;;19.20;59.01;99215.06;4772242;29;20445;-68
2022/01/28 05:55:58;;;;;;;73.78;33.53;;;;;;;19.46;58.90;99203.97;4779996;29;20526;-68
2022/01/28 05:58:54;;;;;;;58.22;30.27;;;;;;;19.87;56.14;99209.38;4773391;29;20051;-67
2022/01/28 06:01:30;;;;;;;66.10;33.42;;;;;;;20.49;59.04;99194.31;4776096;29;20123;-69
2022/01/28 06:04:28;;;;;;;54.75;33.15;;;;;;;19.46;56.50;99198.72;4777266;29;20569;-69
2022/01/28 06:07:04;;;;;;;56.33;30.45;;;;;;;20.05;56.44;99196.97;4775845;29;20170;-68
2022/01/28 06:09:58;;;;;;;59.40;30.25;;;;;;;20.02;58.92;99191.97;4778730;29;20063;-66
2022/01/28 06:12:42;;;;;;;44.40;27.17;;;;;;;19.78;54.33;99194.25;4778224;29;20065;-67
2022/01/28 06:15:38;;;;;;;53.30;29.45;;;;;;;20.04;55.59;99190.06;4781095;29;20150;-68
2022/01/28 06:18:14;;;;;;;50.63;27.48;;;;;;;19.56;54.67;99182.53;4774451;29;20611;-67
2022/01/28 06:21:10;;;;;;;55.80;28.58;;;;;;;19.34;53.29;99183.75;4780984;29;20055;-69
2022/01/28 06:23:45;;;;;;;46.97;25.88;;;;;;;19.44;52.48;99179.69;4782010;29;20074;-68
2022/01/28 06:26:41;;;;;;;52.05;26.92;;;;;;;19.25;53.24;99168.59;4784949;29;20055;-68
2022/01/28 06:29:17;;;;;;;58.60;28.77;;;;;;;19.85;54.48;99168.59;4776861;29;20051;-68
2022/01/28 06:32:05;;;;;;;49.28;28.00;;;;;;;20.23;55.33;99166.25;4778725;29;20062;-68
2022/01/28 06:34:47;;;;;;;46.90;29.05;;;;;;;19.68;52.88;99171.34;4763745;30;20051;-68
2022/01/28 06:37:38;;;;;;;57.45;30.20;;;;;;;19.75;52.32;99175.28;4781234;29;20092;-69
2022/01/28 06:40:23;;;;;;;52.10;29.90;;;;;;;19.64;51.32;99167.22;4778120;29;20058;-68
2022/01/28 06:43:20;;;;;;;57.88;29.52;;;;;;;19.54;54.25;99151.28;4774869;29;20051;-70
2022/01/28 06:45:57;;;;;;;63.22;31.35;;;;;;;19.55;52.67;99141.66;4775952;29;20054;-68
2022/01/28 06:48:45;;;;;;;58.35;31.83;;;;;;;19.99;54.82;99134.59;4775275;29;20413;-68
2022/01/28 06:51:27;;;;;;;55.90;32.00;;;;;;;20.12;53.07;99130.28;4761907;29;20139;-67
2022/01/28 06:54:16;;;;;;;67.07;32.85;;;;;;;20.05;50.89;99134.19;4772705;29;20052;-66
2022/01/28 06:56:58;;;;;;;56.67;31.55;;;;;;;19.85;51.69;99132.81;4781300;29;20055;-66
2022/01/28 06:59:52;;;;;;;63.60;32.08;;;;;;;20.07;50.59;99115.81;4782242;29;20123;-66
2022/01/28 07:02:27;;;;;;;54.75;31.10;;;;;;;19.86;53.19;99107.50;4776767;29;20055;-67
2022/01/28 07:05:16;;;;;;;65.43;32.38;;;;;;;20.05;51.50;99113.28;4779407;29;20063;-67
2022/01/28 07:07:59;;;;;;;60.97;33.30;;;;;;;19.64;51.03;99094.88;4783911;29;20248;-68
2022/01/28 07:10:54;;;;;;;55.90;31.15;;;;;;;19.82;51.33;99080.69;4777910;29;20072;-66
2022/01/28 07:13:30;;;;;;;67.43;35.42;;;;;;;19.78;51.58;99089.69;4776071;29;20055;-65
2022/01/28 07:16:24;;;;;;;74.65;34.45;;;;;;;19.83;51.64;99076.31;4780247;29;20135;-64
2022/01/28 07:19:00;;;;;;;58.97;31.27;;;;;;;19.92;49.14;99080.97;4781865;29;20063;-65
2022/01/28 07:21:58;;;;;;;72.32;34.33;;;;;;;20.04;50.83;99077.59;4759996;30;20051;-65
2022/01/28 07:24:34;;;;;;;58.83;33.30;;;;;;;19.97;50.12;99078.91;4756433;29;20059;-65
2022/01/28 07:27:30;;;;;;;65.50;36.75;;;;;;;19.89;53.17;99065.47;4775010;29;20392;-66
2022/01/28 07:30:07;;;;;;;71.38;36.40;;;;;;;19.87;52.01;99062.94;4773457;29;20059;-65
2022/01/28 07:33:07;;;;;;;72.88;38.20;;;;;;;19.91;53.08;99055.75;4773295;29;20043;-67
2022/01/28 07:35:47;;;;;;;82.50;40.77;;;;;;;19.98;52.35;99046.59;4775001;29;20061;-68
2022/01/28 07:38:42;;;;;;;73.45;39.72;;;;;;;20.01;51.98;99051.63;4773522;29;20295;-67
2022/01/28 07:41:18;;;;;;;72.47;38.42;;;;;;;19.83;51.50;99034.47;4776693;29;20058;-68
2022/01/28 07:44:13;;;;;;;77.47;38.72;;;;;;;20.01;53.26;99030.72;4776092;29;20066;-66
2022/01/28 07:46:48;;;;;;;66.45;30.30;;;;;;;19.80;49.78;99035.50;4780155;29;20062;-65
2022/01/28 07:49:36;;;;;;;64.57;28.83;;;;;;;19.94;51.65;99023.34;4782850;29;20046;-65
2022/01/28 07:52:18;;;;;;;57.10;32.13;;;;;;;19.82;50.04;99028.41;4784255;29;20107;-66
2022/01/28 07:55:15;;;;;;;60.00;30.30;;;;;;;19.82;51.30;99030.16;4785014;29;20059;-65
2022/01/28 07:58:03;;;;;;;65.53;28.73;;;;;;;19.65;48.74;99027.75;4781740;29;20059;-66
2022/01/28 08:00:53;;;;;;;70.88;29.48;;;;;;;19.74;50.36;99012.34;4773514;29;20062;-66
2022/01/28 08:03:35;;;;;;;60.15;29.02;;;;;;;19.63;47.83;99011.34;4779770;29;20094;-66
2022/01/28 08:06:25;;;;;;;50.00;27.63;;;;;;;19.58;49.35;99018.59;4767641;29;20051;-66
2022/01/28 08:09:08;;;;;;;48.97;26.90;;;;;;;19.58;49.09;99011.63;4772220;29;20062;-65
2022/01/28 08:11:57;;;;;;;48.53;25.63;;;;;;;19.52;48.33;99006.75;4776017;29;20142;-65
2022/01/28 08:14:39;;;;;;;56.33;27.95;;;;;;;19.58;49.02;99001.16;4780464;29;20563;-65
2022/01/28 08:17:27;;;;;;;54.78;28.17;;;;;;;19.47;48.18;98999.19;4778404;29;20064;-65
2022/01/28 08:20:09;;;;;;;56.80;28.58;;;;;;;19.33;47.81;98993.09;4768349;29;20074;-67
2022/01/28 08:22:59;;;;;;;64.00;29.00;;;;;;;19.48;50.46;98990.41;4770091;29;20546;-66
2022/01/28 08:25:51;;;;;;;55.15;29.02;;;;;;;19.66;50.74;98995.44;4776069;29;20070;-66
2022/01/28 08:28:33;;;;;;;49.55;27.48;;;;;;;19.52;48.04;98982.41;4773811;29;20079;-66
2022/01/28 08:31:23;;;;;;;53.95;26.80;;;;;;;19.55;49.76;98992.69;4776707;29;20143;-64
2022/01/28 08:34:05;;;;;;;47.75;26.50;;;;;;;19.55;47.88;98984.84;4778162;29;21020;-65
2022/01/28 08:36:55;;;;;;;50.55;27.35;;;;;;;19.47;47.90;98974.84;4773389;29;20055;-65
2022/01/28 08:39:35;;;;;;;48.28;26.42;;;;;;;19.27;49.39;98965.56;4773081;29;20048;-65
2022/01/28 08:42:24;;;;;;;57.92;28.77;;;;;;;19.47;51.28;98970.44;4768277;30;20052;-65
2022/01/28 08:45:07;;;;;;;58.55;28.85;;;;;;;19.38;47.99;98973.63;4773552;29;20416;-64
2022/01/28 08:47:57;;;;;;;57.15;28.52;;;;;;;19.39;50.44;98962.25;4775094;30;20059;-65
2022/01/28 08:50:39;;;;;;;48.30;26.60;;;;;;;19.38;49.41;98965.78;4775702;29;20062;-66
2022/01/28 08:53:28;;;;;;;50.20;26.35;;;;;;;19.13;49.29;98949.91;4775530;29;20132;-65
2022/01/28 08:56:11;;;;;;;57.55;26.27;;;;;;;19.32;50.78;98960.91;4771495;29;20317;-65
2022/01/28 08:59:07;;;;;;;53.53;26.67;;;;;;;19.24;51.78;98951.84;4768275;29;20062;-63
2022/01/28 09:01:50;;;;;;;46.33;26.00;;;;;;;19.18;50.55;98953.06;4776528;29;20075;-63
2022/01/28 09:04:44;;;;;;;51.38;25.75;;;;;;;19.35;50.42;98950.28;4777652;29;20229;-63
2022/01/28 09:07:19;;;;;;;52.00;26.00;;;;;;;19.33;51.20;98944.28;4748465;29;20294;-64
2022/01/28 09:10:23;;;;;;;47.10;24.70;;;;;;;19.21;49.41;98945.06;4773817;29;20055;-64
2022/01/28 09:15:55;;;;;;;47.92;25.15;;;;;;;19.20;50.81;98950.38;4765903;29;20059;-64
2022/01/28 09:18:37;;;;;;;45.05;24.42;;;;;;;19.13;50.02;98951.69;4435866;29;10000502;-64
2022/01/28 09:21:26;;;;;;;43.92;23.58;;;;;;;19.23;50.06;98945.81;4769821;29;20065;-63
2022/01/28 09:24:08;;;;;;;44.38;23.75;;;;;;;19.21;50.01;98942.44;4775059;29;20548;-62
2022/01/28 09:27:03;;;;;;;49.22;25.02;;;;;;;19.04;49.66;98942.63;4779996;29;20863;-62
2022/01/28 09:29:39;;;;;;;50.05;24.63;;;;;;;19.14;51.00;98935.09;4774232;29;20650;-61
2022/01/28 09:32:27;;;;;;;48.40;25.17;;;;;;;19.16;49.93;98939.25;4756640;29;20138;-64
2022/01/28 09:35:19;;;;;;;61.50;26.65;;;;;;;19.06;49.70;98931.16;4772096;29;20382;-64
2022/01/28 09:38:02;;;;;;;52.05;25.38;;;;;;;19.11;51.08;98926.50;4775856;29;20066;-65
2022/01/28 09:40:51;;;;;;;44.55;23.77;;;;;;;19.07;50.85;98924.19;4783988;29;20065;-65
2022/01/28 09:43:34;;;;;;;49.47;22.50;;;;;;;19.06;49.30;98922.50;4777361;29;20055;-63
2022/01/28 09:46:22;;;;;;;37.08;20.65;;;;;;;19.13;46.47;98929.00;4775696;29;20075;-64
2022/01/28 09:49:21;;;;;;;46.70;20.63;;;;;;;19.03;47.61;98920.91;4773393;29;20062;-64
2022/01/28 09:51:58;;;;;;;37.67;19.75;;;;;;;19.02;47.19;98915.75;4761014;29;20158;-64
2022/01/28 09:54:52;;;;;;;38.30;19.42;;;;;;;19.01;48.87;98920.13;4777703;29;20124;-63
2022/01/28 09:57:28;;;;;;;36.35;20.23;;;;;;;18.92;49.39;98904.19;4776800;29;20062;-64
2022/01/28 10:00:25;;;;;;;37.47;20.02;;;;;;;18.69;49.63;98914.25;4781744;29;20153;-63
2022/01/28 10:03:09;;;;;;;40.28;21.05;;;;;;;18.80;49.64;98912.75;4779138;29;20050;-63
2022/01/28 10:05:58;;;;;;;54.65;19.80;;;;;;;18.85;52.21;98898.50;4776146;29;20056;-63
2022/01/28 10:08:42;;;;;;;45.97;19.80;;;;;;;18.97;51.30;98902.16;4776119;29;20062;-62
2022/01/28 10:11:29;;;;;;;;;;;;;;;18.84;50.31;98895.97;4774623;29;20513;-64
2022/01/28 10:14:24;;;;;;;36.45;19.05;;;;;;;18.86;49.23;98900.19;4773721;29;19925;-65
2022/01/28 10:17:13;;;;;;;39.08;17.33;;;;;;;18.80;49.32;98892.72;4759551;29;20152;-65
2022/01/28 10:20:07;;;;;;;30.42;17.80;;;;;;;18.76;49.35;98893.81;4756780;29;20085;-67
2022/01/28 10:23:04;;;;;;;37.42;17.90;;;;;;;18.61;49.13;98898.19;4777911;29;20121;-65
2022/01/28 10:25:45;;;;;;;40.00;17.52;;;;;;;18.63;50.80;98883.28;4780899;29;20161;-65
2022/01/28 10:28:34;;;;;;;38.13;16.88;;;;;;;18.66;50.93;98892.72;4771074;29;20055;-65
2022/01/28 10:31:16;;;;;;;30.60;15.95;;;;;;;18.64;50.87;98887.59;4779386;29;20050;-66
2022/01/28 10:34:16;;;;;;;27.20;15.38;;;;;;;18.61;49.94;98897.34;4785330;29;20055;-64
2022/01/28 10:37:24;;;;;;;31.33;14.57;;;;;;;18.46;47.37;98901.66;4778030;29;20128;-66
2022/01/28 10:40:15;;;;;;;27.25;13.50;;;;;;;18.46;49.37;98895.63;4768529;29;20295;-66
2022/01/28 10:42:57;;;;;;;28.55;14.27;;;;;;;18.44;48.18;98894.88;4765021;29;20433;-66
2022/01/28 10:45:44;;;;;;;22.95;13.68;;;;;;;18.47;48.59;98892.06;4784053;29;20082;-66
2022/01/28 10:48:33;;;;;;;28.63;14.57;;;;;;;18.41;49.01;98897.66;4780913;29;20725;-66
2022/01/28 10:51:15;;;;;;;24.30;13.23;;;;;;;18.41;48.79;98903.72;4774890;29;20152;-67
2022/01/28 10:54:28;;;;;;;27.88;14.38;;;;;;;18.49;50.17;98900.66;4778654;29;20051;-66
2022/01/28 10:57:11;;;;;;;30.40;13.55;;;;;;;18.29;49.42;98918.31;4778727;29;20488;-66
2022/01/28 11:00:05;;;;;;;28.08;14.30;;;;;;;18.15;48.70;98906.97;4779319;29;20059;-66
2022/01/28 11:02:56;;;;;;;24.40;13.82;;;;;;;18.05;47.96;98904.06;4777175;29;20567;-66
2022/01/28 11:05:40;;;;;;;27.63;13.77;;;;;;;18.08;49.90;98905.66;4782390;29;20054;-66
2022/01/28 11:08:31;;;;;;;21.23;12.95;;;;;;;18.07;50.01;98910.03;4779544;29;20138;-66
2022/01/28 11:11:15;;;;;;;33.22;12.70;;;;;;;17.95;50.75;98914.19;4780646;29;20131;-66
2022/01/28 11:14:04;;;;;;;22.10;12.13;;;;;;;17.84;49.07;98908.72;4781970;29;20051;-63
2022/01/28 11:16:46;;;;;;;23.45;12.35;;;;;;;17.82;50.54;98909.72;4781657;29;20067;-65
2022/01/28 11:19:44;;;;;;;27.67;13.18;;;;;;;17.70;49.46;98906.06;4776037;29;20047;-65
2022/01/28 11:22:42;;;;;;;27.00;12.13;;;;;;;17.59;50.88;98914.41;4775089;29;20123;-65
2022/01/28 11:25:55;;;;;;;22.25;13.00;;;;;;;17.69;50.07;98908.72;4774643;29;20059;-65
2022/01/28 11:28:50;;;;;;;28.08;11.90;;;;;;;17.55;51.11;98914.69;4777757;29;20644;-67
2022/01/28 11:31:43;;;;;;;26.00;12.50;;;;;;;17.49;53.32;98909.78;4774313;29;20059;-65
2022/01/28 11:34:30;;;;;;;20.85;12.27;;;;;;;17.49;52.90;98907.16;4777185;29;20066;-66
2022/01/28 11:37:12;;;;;;;21.95;12.23;;;;;;;17.44;51.69;98914.41;4775042;29;20067;-65
2022/01/28 11:40:12;;;;;;;21.73;12.00;;;;;;;17.46;52.54;98912.56;4777524;29;20609;-69
2022/01/28 11:42:54;;;;;;;24.52;13.00;;;;;;;17.44;54.42;98904.00;4771505;29;20078;-66
2022/01/28 11:45:43;;;;;;;25.10;14.10;;;;;;;17.37;53.69;98910.47;4776555;29;20500;-68
2022/01/28 11:48:25;;;;;;;25.00;13.10;;;;;;;17.26;54.06;98916.22;4779865;29;20051;-67
2022/01/28 11:51:40;;;;;;;25.60;13.57;;;;;;;17.24;54.34;98912.03;4774098;29;20079;-66
2022/01/28 11:54:19;;;;;;;38.13;15.55;;;;;;;17.16;53.45;98905.47;4774798;29;20460;-66
2022/01/28 11:57:19;;;;;;;35.53;15.18;;;;;;;17.10;56.11;98910.16;4772260;29;20059;-68
2022/01/28 12:00:39;;;;;;;30.47;14.27;;;;;;;17.08;55.05;98917.22;4772013;29;20055;-67
2022/01/28 12:03:32;;;;;;;35.08;13.77;;;;;;;16.92;57.74;98906.75;4773556;29;20077;-66
2022/01/28 12:06:17;;;;;;;32.03;14.05;;;;;;;16.90;55.35;98919.03;4766783;29;20067;-67
2022/01/28 12:09:08;;;;;;;30.33;14.70;;;;;;;16.96;54.77;98918.69;4777948;29;20055;-69
2022/01/28 12:12:01;;;;;;;25.95;14.13;;;;;;;16.83;59.67;98908.09;4795786;29;20733;-68
2022/01/28 12:15:05;;;;;;;31.67;13.85;;;;;;;16.66;58.92;98905.50;4762572;29;20051;-68
2022/01/28 12:18:04;;;;;;;37.00;13.82;;;;;;;16.59;61.43;98901.50;4769095;29;20078;-70
2022/01/28 12:20:53;;;;;;;29.27;13.63;;;;;;;16.42;64.68;98899.75;4766210;29;20059;-67
2022/01/28 12:23:44;;;;;;;37.63;15.80;;;;;;;16.24;66.13;98897.22;4773642;29;20055;-65
2022/01/28 12:26:26;;;;;;;34.60;14.63;;;;;;;16.05;68.51;98892.91;4778380;29;20066;-66
2022/01/28 12:29:15;;;;;;;37.00;15.88;;;;;;;15.94;71.86;98899.56;4775087;29;20051;-66
2022/01/28 12:32:12;;;;;;;36.60;16.15;;;;;;;15.69;71.05;98907.69;4778915;29;20072;-66
2022/01/28 12:35:03;;;;;;;38.10;14.77;;;;;;;15.62;74.67;98921.88;4776132;29;20100;-64
2022/01/28 12:37:58;;;;;;;41.47;16.27;;;;;;;15.48;74.19;98925.09;4778341;29;20079;-65
2022/01/28 12:40:53;;;;;;;35.67;16.98;;;;;;;15.33;75.95;98931.78;4780680;29;20054;-67
2022/01/28 12:43:38;;;;;;;39.38;16.23;;;;;;;15.28;78.59;98925.97;4757646;29;20917;-66
2022/01/28 12:46:31;;;;;;;35.42;16.08;;;;;;;15.17;80.49;98933.38;4774332;29;20469;-67
2022/01/28 12:49:13;;;;;;;41.08;17.35;;;;;;;15.09;81.57;98937.22;4773731;29;20054;-68
2022/01/28 12:52:06;;;;;;;39.80;17.73;;;;;;;14.95;82.41;98932.66;4776572;29;20458;-66
2022/01/28 12:54:48;;;;;;;48.78;17.40;;;;;;;14.87;83.72;98930.41;4774199;29;20376;-64
2022/01/28 12:57:37;;;;;;;53.20;19.17;;;;;;;14.74;85.20;98929.25;4774891;29;20129;-64
2022/01/28 13:00:32;;;;;;;56.08;19.10;;;;;;;14.61;84.93;98925.47;4779183;29;20121;-64
2022/01/28 13:03:24;;;;;;;44.38;18.63;;;;;;;14.54;85.15;98918.88;4774574;29;20055;-63
2022/01/28 13:06:39;;;;;;;38.97;19.25;;;;;;;14.51;85.32;98926.81;4778675;29;20086;-64
2022/01/28 13:09:30;;;;;;;54.30;21.38;;;;;;;14.47;89.48;98920.03;4777408;29;20067;-63
2022/01/28 13:12:22;;;;;;;54.40;21.00;;;;;;;14.32;90.77;98926.69;4777239;29;20053;-66
2022/01/28 13:15:17;;;;;;;54.28;22.02;;;;;;;14.24;92.31;98935.66;4778865;29;20151;-67
2022/01/28 13:18:01;;;;;;;57.88;25.92;;;;;;;14.18;91.77;98926.41;4779257;29;20078;-67
2022/01/28 13:20:50;;;;;;;73.20;26.20;;;;;;;14.21;94.41;98933.22;4777416;29;20085;-66
2022/01/28 13:23:35;;;;;;;88.00;31.17;;;;;;;14.14;95.31;98935.19;4777340;29;20055;-68
2022/01/28 13:26:24;;;;;;;87.65;31.75;;;;;;;13.99;96.67;98939.25;4775341;29;20125;-68
2022/01/28 13:29:08;;;;;;;94.10;30.67;;;;;;;13.97;97.88;98938.44;4779128;29;20476;-65
2022/01/28 13:32:00;;;;;;;90.72;31.25;;;;;;;13.88;98.53;98944.03;4775595;29;20063;-66
2022/01/28 13:34:50;;;;;;;86.72;29.35;;;;;;;13.81;100.00;98944.31;4776836;29;20101;-67
2022/01/28 13:38:06;;;;;;;73.30;28.02;;;;;;;13.64;100.00;98939.78;4534261;29;10000900;-64
2022/01/28 13:40:48;;;;;;;76.43;30.48;;;;;;;13.64;100.00;98942.38;4755132;30;21825;-63
2022/01/28 13:43:46;;;;;;;72.78;31.23;;;;;;;13.56;100.00;98949.59;4585019;30;10001747;-63
2022/01/28 13:46:34;;;;;;;74.85;31.58;;;;;;;13.48;100.00;98956.78;4774507;29;20271;-63
2022/01/28 13:49:24;;;;;;;70.68;31.48;;;;;;;13.51;100.00;98952.34;4774660;29;20057;-64
2022/01/28 13:55:48;;;;;;;101.32;47.53;;;;;;;13.41;100.00;98957.00;4751194;30;20150;-63
2022/01/28 13:58:56;;;;;;;117.03;53.53;;;;;;;13.40;100.00;98952.75;4760914;30;20059;-66
2022/01/28 14:01:47;;;;;;;152.35;67.35;;;;;;;13.39;100.00;98957.97;4775226;30;20093;-63
2022/01/28 14:04:53;;;;;;;129.88;65.35;;;;;;;13.32;100.00;98959.97;4775102;29;20059;-66
2022/01/28 14:07:53;;;;;;;136.40;65.85;;;;;;;13.37;100.00;98962.34;4773022;29;20055;-66
2022/01/28 14:10:44;;;;;;;137.73;66.20;;;;;;;13.30;100.00;98966.06;4767997;29;20937;-68
2022/01/28 14:13:33;;;;;;;139.18;68.32;;;;;;;13.28;100.00;98968.72;4753775;30;20842;-66
2022/01/28 14:16:22;;;;;;;119.20;72.70;;;;;;;13.20;100.00;98975.91;4758006;30;20063;-68